sensor_id;sensor_type;location;lat;lon;timestamp;pressure;altitude;pressure_sealevel;temperature;humidity
48216;BME280;34005;48.844;10.098;2024-03-17T00:01:50;97389.22;;;8.74;71.86
48216;BME280;34005;48.844;10.098;2024-03-17T00:04:17;97386.09;;;8.70;72.15
48216;BME280;34005;48.844;10.098;2024-03-17T00:06:46;97393.41;;;8.66;72.23
48216;BME280;34005;48.844;10.098;2024-03-17T00:09:12;97387.81;;;8.61;72.07
48216;BME280;34005;48.844;10.098;2024-03-17T00:11:38;97384.84;;;8.56;71.95
48216;BME280;34005;48.844;10.098;2024-03-17T00:14:05;97387.09;;;8.51;72.32
48216;BME280;34005;48.844;10.098;2024-03-17T00:16:32;97391.63;;;8.49;72.43
48216;BME280;34005;48.844;10.098;2024-03-17T00:18:58;97388.22;;;8.49;72.36
48216;BME280;34005;48.844;10.098;2024-03-17T00:21:24;97389.03;;;8.49;72.48
48216;BME280;34005;48.844;10.098;2024-03-17T00:23:53;97395.34;;;8.47;72.40
48216;BME280;34005;48.844;10.098;2024-03-17T00:26:18;97386.06;;;8.44;72.39
48216;BME280;34005;48.844;10.098;2024-03-17T00:28:46;97383.84;;;8.39;71.93
48216;BME280;34005;48.844;10.098;2024-03-17T00:31:13;97388.81;;;8.33;72.10
48216;BME280;34005;48.844;10.098;2024-03-17T00:33:40;97384.25;;;8.27;72.25
48216;BME280;34005;48.844;10.098;2024-03-17T00:36:06;97377.25;;;8.27;72.44
48216;BME280;34005;48.844;10.098;2024-03-17T00:38:33;97376.44;;;8.27;72.04
48216;BME280;34005;48.844;10.098;2024-03-17T00:41:02;97377.38;;;8.25;72.22
48216;BME280;34005;48.844;10.098;2024-03-17T00:43:29;97373.44;;;8.21;72.07
48216;BME280;34005;48.844;10.098;2024-03-17T00:45:54;97373.63;;;8.20;72.30
48216;BME280;34005;48.844;10.098;2024-03-17T00:48:21;97376.34;;;8.18;72.71
48216;BME280;34005;48.844;10.098;2024-03-17T00:50:55;97377.84;;;8.21;73.53
48216;BME280;34005;48.844;10.098;2024-03-17T00:53:21;97367.31;;;8.22;73.06
48216;BME280;34005;48.844;10.098;2024-03-17T00:55:51;97369.22;;;8.20;72.62
48216;BME280;34005;48.844;10.098;2024-03-17T00:58:19;97371.16;;;8.18;72.63
48216;BME280;34005;48.844;10.098;2024-03-17T01:00:45;97359.09;;;8.17;72.44
48216;BME280;34005;48.844;10.098;2024-03-17T01:03:13;97355.03;;;8.15;72.66
48216;BME280;34005;48.844;10.098;2024-03-17T01:05:39;97358.75;;;8.12;72.31
48216;BME280;34005;48.844;10.098;2024-03-17T01:08:08;97360.00;;;8.08;72.36
48216;BME280;34005;48.844;10.098;2024-03-17T01:10:37;97360.44;;;8.03;72.36
48216;BME280;34005;48.844;10.098;2024-03-17T01:13:05;97347.91;;;7.99;72.53
48216;BME280;34005;48.844;10.098;2024-03-17T01:15:32;97347.22;;;7.97;72.60
48216;BME280;34005;48.844;10.098;2024-03-17T01:17:59;97349.16;;;7.95;72.69
48216;BME280;34005;48.844;10.098;2024-03-17T01:20:25;97346.84;;;7.92;72.99
48216;BME280;34005;48.844;10.098;2024-03-17T01:22:51;97340.31;;;7.88;73.20
48216;BME280;34005;48.844;10.098;2024-03-17T01:25:18;97335.13;;;7.88;72.98
48216;BME280;34005;48.844;10.098;2024-03-17T01:27:45;97338.84;;;7.85;72.92
48216;BME280;34005;48.844;10.098;2024-03-17T01:30:11;97329.69;;;7.81;72.92
48216;BME280;34005;48.844;10.098;2024-03-17T01:32:39;97331.75;;;7.77;72.91
48216;BME280;34005;48.844;10.098;2024-03-17T01:35:06;97330.72;;;7.70;72.88
48216;BME280;34005;48.844;10.098;2024-03-17T01:37:32;97327.72;;;7.65;72.92
48216;BME280;34005;48.844;10.098;2024-03-17T01:39:58;97337.72;;;7.60;73.24
48216;BME280;34005;48.844;10.098;2024-03-17T01:42:25;97333.78;;;7.56;73.29
48216;BME280;34005;48.844;10.098;2024-03-17T01:44:51;97344.16;;;7.56;73.48
48216;BME280;34005;48.844;10.098;2024-03-17T01:47:17;97334.47;;;7.58;75.01
48216;BME280;34005;48.844;10.098;2024-03-17T01:49:45;97332.63;;;7.68;76.35
48216;BME280;34005;48.844;10.098;2024-03-17T01:52:13;97332.13;;;7.82;76.86
48216;BME280;34005;48.844;10.098;2024-03-17T01:54:38;97330.88;;;7.87;74.89
48216;BME280;34005;48.844;10.098;2024-03-17T01:57:05;97329.25;;;7.86;74.67
48216;BME280;34005;48.844;10.098;2024-03-17T01:59:31;97326.66;;;7.86;74.92
48216;BME280;34005;48.844;10.098;2024-03-17T02:01:59;97324.34;;;7.82;74.48
48216;BME280;34005;48.844;10.098;2024-03-17T02:04:25;97315.88;;;7.80;73.68
48216;BME280;34005;48.844;10.098;2024-03-17T02:06:53;97323.97;;;7.77;73.36
48216;BME280;34005;48.844;10.098;2024-03-17T02:09:19;97319.88;;;7.75;73.39
48216;BME280;34005;48.844;10.098;2024-03-17T02:11:47;97316.09;;;7.69;73.10
48216;BME280;34005;48.844;10.098;2024-03-17T02:14:13;97314.91;;;7.63;73.23
48216;BME280;34005;48.844;10.098;2024-03-17T02:16:42;97316.00;;;7.61;73.43
48216;BME280;34005;48.844;10.098;2024-03-17T02:19:08;97311.63;;;7.61;73.45
48216;BME280;34005;48.844;10.098;2024-03-17T02:21:35;97309.47;;;7.57;73.35
48216;BME280;34005;48.844;10.098;2024-03-17T02:24:04;97321.78;;;7.55;74.03
48216;BME280;34005;48.844;10.098;2024-03-17T02:26:31;97317.09;;;7.58;73.95
48216;BME280;34005;48.844;10.098;2024-03-17T02:28:57;97316.53;;;7.64;75.33
48216;BME280;34005;48.844;10.098;2024-03-17T02:31:23;97311.66;;;7.79;77.60
48216;BME280;34005;48.844;10.098;2024-03-17T02:33:49;97310.41;;;7.83;75.45
48216;BME280;34005;48.844;10.098;2024-03-17T02:36:16;97304.41;;;7.83;74.12
48216;BME280;34005;48.844;10.098;2024-03-17T02:38:43;97303.94;;;7.88;75.93
48216;BME280;34005;48.844;10.098;2024-03-17T02:41:28;97306.25;;;7.91;74.46
48216;BME280;34005;48.844;10.098;2024-03-17T02:43:55;97301.03;;;7.91;73.75
48216;BME280;34005;48.844;10.098;2024-03-17T02:46:22;97299.44;;;7.90;73.58
48216;BME280;34005;48.844;10.098;2024-03-17T02:48:51;97303.78;;;7.89;73.04
48216;BME280;34005;48.844;10.098;2024-03-17T02:51:19;97300.38;;;7.89;73.28
48216;BME280;34005;48.844;10.098;2024-03-17T02:53:47;97294.50;;;7.87;72.77
48216;BME280;34005;48.844;10.098;2024-03-17T02:56:16;97294.00;;;7.83;72.64
48216;BME280;34005;48.844;10.098;2024-03-17T02:58:46;97282.56;;;7.76;72.79
48216;BME280;34005;48.844;10.098;2024-03-17T03:01:13;97280.78;;;7.76;72.97
48216;BME280;34005;48.844;10.098;2024-03-17T03:03:40;97283.91;;;7.80;74.17
48216;BME280;34005;48.844;10.098;2024-03-17T03:06:07;97280.34;;;7.81;73.40
48216;BME280;34005;48.844;10.098;2024-03-17T03:08:37;97278.69;;;7.80;73.06
48216;BME280;34005;48.844;10.098;2024-03-17T03:11:06;97281.59;;;7.77;73.00
48216;BME280;34005;48.844;10.098;2024-03-17T03:13:33;97284.19;;;7.77;73.82
48216;BME280;34005;48.844;10.098;2024-03-17T03:16:01;97279.00;;;7.77;73.37
48216;BME280;34005;48.844;10.098;2024-03-17T03:18:28;97276.53;;;7.75;72.94
48216;BME280;34005;48.844;10.098;2024-03-17T03:20:55;97268.91;;;7.74;73.22
48216;BME280;34005;48.844;10.098;2024-03-17T03:23:22;97267.81;;;7.76;73.04
48216;BME280;34005;48.844;10.098;2024-03-17T03:25:54;97267.94;;;7.75;73.29
48216;BME280;34005;48.844;10.098;2024-03-17T03:28:21;97262.63;;;7.76;73.14
48216;BME280;34005;48.844;10.098;2024-03-17T03:30:48;97264.22;;;7.77;73.04
48216;BME280;34005;48.844;10.098;2024-03-17T03:33:16;97265.88;;;7.78;72.97
48216;BME280;34005;48.844;10.098;2024-03-17T03:35:43;97271.88;;;7.79;72.99
48216;BME280;34005;48.844;10.098;2024-03-17T03:38:11;97282.78;;;7.82;73.05
48216;BME280;34005;48.844;10.098;2024-03-17T03:40:41;97283.84;;;7.90;75.90
48216;BME280;34005;48.844;10.098;2024-03-17T03:43:07;97278.41;;;8.01;77.29
48216;BME280;34005;48.844;10.098;2024-03-17T03:45:34;97276.56;;;8.11;75.58
48216;BME280;34005;48.844;10.098;2024-03-17T03:48:02;97270.72;;;8.09;73.68
48216;BME280;34005;48.844;10.098;2024-03-17T03:50:30;97266.91;;;8.03;73.21
48216;BME280;34005;48.844;10.098;2024-03-17T03:52:57;97274.84;;;8.02;73.40
48216;BME280;34005;48.844;10.098;2024-03-17T03:55:24;97278.13;;;8.04;73.31
48216;BME280;34005;48.844;10.098;2024-03-17T03:57:51;97274.69;;;8.03;73.19
48216;BME280;34005;48.844;10.098;2024-03-17T04:00:19;97276.63;;;8.01;73.03
48216;BME280;34005;48.844;10.098;2024-03-17T04:02:48;97274.47;;;7.97;72.81
48216;BME280;34005;48.844;10.098;2024-03-17T04:05:15;97284.06;;;7.96;72.92
48216;BME280;34005;48.844;10.098;2024-03-17T04:07:43;97274.34;;;7.98;74.56
48216;BME280;34005;48.844;10.098;2024-03-17T04:10:12;97278.28;;;8.02;73.83
48216;BME280;34005;48.844;10.098;2024-03-17T04:12:39;97277.53;;;8.10;75.02
48216;BME280;34005;48.844;10.098;2024-03-17T04:15:06;97272.19;;;8.12;73.80
48216;BME280;34005;48.844;10.098;2024-03-17T04:17:35;97267.78;;;8.12;72.93
48216;BME280;34005;48.844;10.098;2024-03-17T04:20:03;97269.41;;;8.13;73.15
48216;BME280;34005;48.844;10.098;2024-03-17T04:22:29;97269.72;;;8.10;72.56
48216;BME280;34005;48.844;10.098;2024-03-17T04:24:57;97271.97;;;8.05;72.26
48216;BME280;34005;48.844;10.098;2024-03-17T04:27:24;97264.63;;;8.00;72.48
48216;BME280;34005;48.844;10.098;2024-03-17T04:29:52;97265.03;;;7.96;72.44
48216;BME280;34005;48.844;10.098;2024-03-17T04:32:19;97256.59;;;7.94;72.53
48216;BME280;34005;48.844;10.098;2024-03-17T04:34:46;97258.53;;;7.92;72.58
48216;BME280;34005;48.844;10.098;2024-03-17T04:37:13;97254.59;;;7.88;72.57
48216;BME280;34005;48.844;10.098;2024-03-17T04:39:40;97262.00;;;7.82;72.67
48216;BME280;34005;48.844;10.098;2024-03-17T04:42:09;97268.47;;;7.78;72.91
48216;BME280;34005;48.844;10.098;2024-03-17T04:44:36;97271.34;;;7.75;72.89
48216;BME280;34005;48.844;10.098;2024-03-17T04:47:03;97267.13;;;7.74;73.06
48216;BME280;34005;48.844;10.098;2024-03-17T04:49:32;97279.94;;;7.76;73.17
48216;BME280;34005;48.844;10.098;2024-03-17T04:51:59;97273.66;;;7.78;73.32
48216;BME280;34005;48.844;10.098;2024-03-17T04:54:25;97271.06;;;7.78;72.96
48216;BME280;34005;48.844;10.098;2024-03-17T04:56:52;97277.88;;;7.79;73.06
48216;BME280;34005;48.844;10.098;2024-03-17T04:59:20;97275.28;;;7.79;72.97
48216;BME280;34005;48.844;10.098;2024-03-17T05:01:47;97277.88;;;7.79;72.52
48216;BME280;34005;48.844;10.098;2024-03-17T05:04:14;97271.34;;;7.75;72.76
48216;BME280;34005;48.844;10.098;2024-03-17T05:06:40;97278.34;;;7.75;72.72
48216;BME280;34005;48.844;10.098;2024-03-17T05:09:11;97283.66;;;7.73;72.87
48216;BME280;34005;48.844;10.098;2024-03-17T05:11:39;97289.66;;;7.74;72.83
48216;BME280;34005;48.844;10.098;2024-03-17T05:14:06;97283.66;;;7.73;73.01
48216;BME280;34005;48.844;10.098;2024-03-17T05:16:34;97288.06;;;7.73;73.02
48216;BME280;34005;48.844;10.098;2024-03-17T05:19:01;97292.94;;;7.76;73.64
48216;BME280;34005;48.844;10.098;2024-03-17T05:21:29;97287.47;;;7.79;73.17
48216;BME280;34005;48.844;10.098;2024-03-17T05:23:56;97293.47;;;7.79;73.07
48216;BME280;34005;48.844;10.098;2024-03-17T05:26:23;97291.53;;;7.81;73.29
48216;BME280;34005;48.844;10.098;2024-03-17T05:28:50;97287.38;;;7.89;74.79
48216;BME280;34005;48.844;10.098;2024-03-17T05:31:17;97286.50;;;7.98;73.97
48216;BME280;34005;48.844;10.098;2024-03-17T05:33:47;97284.97;;;8.05;74.94
48216;BME280;34005;48.844;10.098;2024-03-17T05:36:14;97291.63;;;8.08;75.62
48216;BME280;34005;48.844;10.098;2024-03-17T05:38:41;97289.91;;;8.16;76.49
48216;BME280;34005;48.844;10.098;2024-03-17T05:41:09;97291.25;;;8.20;76.69
48216;BME280;34005;48.844;10.098;2024-03-17T05:43:37;97297.63;;;8.26;77.29
48216;BME280;34005;48.844;10.098;2024-03-17T05:46:05;97289.00;;;8.25;75.39
48216;BME280;34005;48.844;10.098;2024-03-17T05:48:32;97284.13;;;8.22;73.69
48216;BME280;34005;48.844;10.098;2024-03-17T05:51:02;97293.19;;;8.18;73.16
48216;BME280;34005;48.844;10.098;2024-03-17T05:53:29;97289.25;;;8.14;73.08
48216;BME280;34005;48.844;10.098;2024-03-17T05:55:58;97283.91;;;8.16;74.40
48216;BME280;34005;48.844;10.098;2024-03-17T05:58:25;97286.34;;;8.17;73.29
48216;BME280;34005;48.844;10.098;2024-03-17T06:00:52;97288.28;;;8.15;72.59
48216;BME280;34005;48.844;10.098;2024-03-17T06:03:19;97283.38;;;8.12;72.69
48216;BME280;34005;48.844;10.098;2024-03-17T06:05:47;97284.19;;;8.13;72.41
48216;BME280;34005;48.844;10.098;2024-03-17T06:08:15;97285.97;;;8.12;72.01
48216;BME280;34005;48.844;10.098;2024-03-17T06:10:43;97277.88;;;8.15;73.65
48216;BME280;34005;48.844;10.098;2024-03-17T06:13:11;97285.25;;;8.20;72.69
48216;BME280;34005;48.844;10.098;2024-03-17T06:15:39;97288.66;;;8.20;72.06
48216;BME280;34005;48.844;10.098;2024-03-17T06:18:06;97284.41;;;8.19;72.01
48216;BME280;34005;48.844;10.098;2024-03-17T06:20:34;97286.19;;;8.19;71.85
48216;BME280;34005;48.844;10.098;2024-03-17T06:23:01;97279.53;;;8.16;71.56
48216;BME280;34005;48.844;10.098;2024-03-17T06:25:29;97271.88;;;8.15;71.46
48216;BME280;34005;48.844;10.098;2024-03-17T06:27:56;97283.06;;;8.15;71.54
48216;BME280;34005;48.844;10.098;2024-03-17T06:30:22;97283.91;;;8.16;71.22
48216;BME280;34005;48.844;10.098;2024-03-17T06:32:49;97273.66;;;8.14;71.38
48216;BME280;34005;48.844;10.098;2024-03-17T06:35:16;97278.84;;;8.14;71.24
48216;BME280;34005;48.844;10.098;2024-03-17T06:37:43;97275.28;;;8.15;71.54
48216;BME280;34005;48.844;10.098;2024-03-17T06:40:13;97276.94;;;8.16;71.25
48216;BME280;34005;48.844;10.098;2024-03-17T06:42:41;97277.75;;;8.17;71.17
48216;BME280;34005;48.844;10.098;2024-03-17T06:45:08;97281.16;;;8.17;71.27
48216;BME280;34005;48.844;10.098;2024-03-17T06:47:35;97272.41;;;8.18;71.11
48216;BME280;34005;48.844;10.098;2024-03-17T06:50:13;97263.34;;;8.22;71.11
48216;BME280;34005;48.844;10.098;2024-03-17T06:52:41;97266.66;;;8.33;70.96
48216;BME280;34005;48.844;10.098;2024-03-17T06:55:08;97261.84;;;8.38;70.64
48216;BME280;34005;48.844;10.098;2024-03-17T06:57:35;97266.47;;;8.44;70.47
48216;BME280;34005;48.844;10.098;2024-03-17T07:00:03;97269.09;;;8.52;70.15
48216;BME280;34005;48.844;10.098;2024-03-17T07:02:31;97267.22;;;8.62;70.15
48216;BME280;34005;48.844;10.098;2024-03-17T07:04:58;97253.28;;;8.72;69.71
48216;BME280;34005;48.844;10.098;2024-03-17T07:07:26;97263.28;;;8.84;69.53
48216;BME280;34005;48.844;10.098;2024-03-17T07:09:53;97257.66;;;8.97;69.04
48216;BME280;34005;48.844;10.098;2024-03-17T07:12:19;97260.78;;;9.09;68.72
48216;BME280;34005;48.844;10.098;2024-03-17T07:14:50;97263.63;;;9.24;68.64
48216;BME280;34005;48.844;10.098;2024-03-17T07:17:17;97268.72;;;9.42;68.15
48216;BME280;34005;48.844;10.098;2024-03-17T07:19:44;97262.59;;;9.59;68.23
48216;BME280;34005;48.844;10.098;2024-03-17T07:22:11;97268.00;;;9.74;68.27
48216;BME280;34005;48.844;10.098;2024-03-17T07:24:38;97268.22;;;9.89;67.74
48216;BME280;34005;48.844;10.098;2024-03-17T07:27:04;97270.66;;;10.07;67.57
48216;BME280;34005;48.844;10.098;2024-03-17T07:29:34;97265.13;;;10.26;66.04
48216;BME280;34005;48.844;10.098;2024-03-17T07:32:01;97265.97;;;10.43;65.64
48216;BME280;34005;48.844;10.098;2024-03-17T07:34:31;97263.19;;;10.61;64.94
48216;BME280;34005;48.844;10.098;2024-03-17T07:36:59;97266.09;;;10.83;64.62
48216;BME280;34005;48.844;10.098;2024-03-17T07:39:28;97266.03;;;10.99;63.14
48216;BME280;34005;48.844;10.098;2024-03-17T07:41:57;97266.78;;;11.16;63.48
48216;BME280;34005;48.844;10.098;2024-03-17T07:44:24;97262.31;;;11.33;62.98
48216;BME280;34005;48.844;10.098;2024-03-17T07:46:51;97263.88;;;11.50;62.20
48216;BME280;34005;48.844;10.098;2024-03-17T07:49:20;97257.59;;;11.68;65.42
48216;BME280;34005;48.844;10.098;2024-03-17T07:51:48;97261.72;;;11.85;62.04
48216;BME280;34005;48.844;10.098;2024-03-17T07:54:15;97263.28;;;12.03;61.98
48216;BME280;34005;48.844;10.098;2024-03-17T07:56:41;97260.00;;;12.24;60.50
48216;BME280;34005;48.844;10.098;2024-03-17T07:59:08;97264.78;;;12.58;61.12
48216;BME280;34005;48.844;10.098;2024-03-17T08:01:37;97264.25;;;13.07;59.08
48216;BME280;34005;48.844;10.098;2024-03-17T08:04:04;97268.09;;;13.71;56.33
48216;BME280;34005;48.844;10.098;2024-03-17T08:06:31;97264.88;;;14.33;54.76
48216;BME280;34005;48.844;10.098;2024-03-17T08:08:59;97270.75;;;14.85;53.75
48216;BME280;34005;48.844;10.098;2024-03-17T08:11:25;97261.13;;;14.99;52.33
48216;BME280;34005;48.844;10.098;2024-03-17T08:13:52;97260.63;;;14.82;52.16
48216;BME280;34005;48.844;10.098;2024-03-17T08:16:19;97261.28;;;14.62;52.61
48216;BME280;34005;48.844;10.098;2024-03-17T08:18:46;97260.66;;;14.60;52.28
48216;BME280;34005;48.844;10.098;2024-03-17T08:21:13;97254.06;;;14.99;51.89
48216;BME280;34005;48.844;10.098;2024-03-17T08:23:39;97255.19;;;15.25;51.26
48216;BME280;34005;48.844;10.098;2024-03-17T08:26:09;97252.06;;;15.08;51.71
48216;BME280;34005;48.844;10.098;2024-03-17T08:28:36;97251.53;;;14.84;51.99
48216;BME280;34005;48.844;10.098;2024-03-17T08:31:03;97259.72;;;14.68;52.78
48216;BME280;34005;48.844;10.098;2024-03-17T08:33:30;97262.88;;;14.57;56.75
48216;BME280;34005;48.844;10.098;2024-03-17T08:36:00;97257.72;;;14.49;57.48
48216;BME280;34005;48.844;10.098;2024-03-17T08:38:28;97252.38;;;14.35;54.77
48216;BME280;34005;48.844;10.098;2024-03-17T08:40:55;97245.25;;;14.29;53.63
48216;BME280;34005;48.844;10.098;2024-03-17T08:43:24;97236.34;;;14.52;52.61
48216;BME280;34005;48.844;10.098;2024-03-17T08:45:54;97238.56;;;15.11;50.48
48216;BME280;34005;48.844;10.098;2024-03-17T08:48:23;97229.44;;;15.55;49.75
48216;BME280;34005;48.844;10.098;2024-03-17T08:50:51;97228.72;;;15.75;49.00
48216;BME280;34005;48.844;10.098;2024-03-17T08:53:17;97231.59;;;16.00;48.38
48216;BME280;34005;48.844;10.098;2024-03-17T08:55:44;97226.94;;;16.22;49.63
48216;BME280;34005;48.844;10.098;2024-03-17T08:58:11;97226.75;;;16.30;47.94
48216;BME280;34005;48.844;10.098;2024-03-17T09:00:39;97215.41;;;16.10;47.09
48216;BME280;34005;48.844;10.098;2024-03-17T09:03:06;97208.91;;;15.85;48.64
48216;BME280;34005;48.844;10.098;2024-03-17T09:05:35;97207.06;;;15.73;53.22
48216;BME280;34005;48.844;10.098;2024-03-17T09:08:02;97208.44;;;15.62;49.37
48216;BME280;34005;48.844;10.098;2024-03-17T09:10:28;97219.09;;;15.47;53.21
48216;BME280;34005;48.844;10.098;2024-03-17T09:12:55;97213.19;;;15.38;51.44
48216;BME280;34005;48.844;10.098;2024-03-17T09:15:22;97214.81;;;15.33;54.27
48216;BME280;34005;48.844;10.098;2024-03-17T09:17:50;97214.94;;;15.18;49.40
48216;BME280;34005;48.844;10.098;2024-03-17T09:20:16;97203.94;;;15.01;49.50
48216;BME280;34005;48.844;10.098;2024-03-17T09:22:43;97218.47;;;14.97;48.51
48216;BME280;34005;48.844;10.098;2024-03-17T09:25:10;97210.22;;;15.00;48.35
48216;BME280;34005;48.844;10.098;2024-03-17T09:27:37;97203.19;;;15.07;48.22
48216;BME280;34005;48.844;10.098;2024-03-17T09:30:04;97213.53;;;15.15;47.86
48216;BME280;34005;48.844;10.098;2024-03-17T09:32:34;97211.91;;;15.21;47.34
48216;BME280;34005;48.844;10.098;2024-03-17T09:35:03;97213.97;;;15.25;47.65
48216;BME280;34005;48.844;10.098;2024-03-17T09:37:30;97204.31;;;15.33;51.74
48216;BME280;34005;48.844;10.098;2024-03-17T09:39:57;97203.69;;;15.31;48.92
48216;BME280;34005;48.844;10.098;2024-03-17T09:42:26;97207.91;;;15.25;48.26
48216;BME280;34005;48.844;10.098;2024-03-17T09:44:53;97202.63;;;15.25;53.26
48216;BME280;34005;48.844;10.098;2024-03-17T09:47:23;97202.44;;;15.27;49.10
48216;BME280;34005;48.844;10.098;2024-03-17T09:49:51;97209.09;;;15.22;47.90
48216;BME280;34005;48.844;10.098;2024-03-17T09:52:22;97211.09;;;15.14;46.80
48216;BME280;34005;48.844;10.098;2024-03-17T09:54:54;97203.75;;;15.02;47.82
48216;BME280;34005;48.844;10.098;2024-03-17T09:57:22;97205.75;;;14.94;52.50
48216;BME280;34005;48.844;10.098;2024-03-17T09:59:51;97204.69;;;14.88;49.15
48216;BME280;34005;48.844;10.098;2024-03-17T10:02:18;97198.75;;;14.73;49.10
48216;BME280;34005;48.844;10.098;2024-03-17T10:04:46;97203.91;;;14.59;49.03
48216;BME280;34005;48.844;10.098;2024-03-17T10:07:14;97202.22;;;14.52;49.31
48216;BME280;34005;48.844;10.098;2024-03-17T10:10:12;97199.16;;;14.48;48.79
48216;BME280;34005;48.844;10.098;2024-03-17T10:12:39;97201.34;;;14.45;48.50
48216;BME280;34005;48.844;10.098;2024-03-17T10:15:10;97210.00;;;14.38;48.07
48216;BME280;34005;48.844;10.098;2024-03-17T10:17:38;97202.91;;;14.32;48.61
48216;BME280;34005;48.844;10.098;2024-03-17T10:20:12;97204.28;;;14.28;49.92
48216;BME280;34005;48.844;10.098;2024-03-17T10:25:24;97206.41;;;14.18;48.94
48216;BME280;34005;48.844;10.098;2024-03-17T10:27:51;97202.53;;;14.14;49.88
48216;BME280;34005;48.844;10.098;2024-03-17T10:30:19;97203.59;;;14.19;49.68
48216;BME280;34005;48.844;10.098;2024-03-17T10:32:52;97205.66;;;14.24;51.29
48216;BME280;34005;48.844;10.098;2024-03-17T10:35:40;97216.66;;;14.34;52.34
48216;BME280;34005;48.844;10.098;2024-03-17T10:38:09;97205.53;;;14.32;52.50
48216;BME280;34005;48.844;10.098;2024-03-17T10:40:37;97199.25;;;14.33;53.14
48216;BME280;34005;48.844;10.098;2024-03-17T10:43:05;97195.66;;;14.34;55.02
48216;BME280;34005;48.844;10.098;2024-03-17T10:45:33;97193.25;;;14.39;55.80
48216;BME280;34005;48.844;10.098;2024-03-17T10:48:02;97199.75;;;14.43;52.50
48216;BME280;34005;48.844;10.098;2024-03-17T10:50:31;97193.13;;;14.48;53.49
48216;BME280;34005;48.844;10.098;2024-03-17T10:53:01;97193.75;;;14.50;50.33
48216;BME280;34005;48.844;10.098;2024-03-17T10:55:33;97192.50;;;14.46;50.74
48216;BME280;34005;48.844;10.098;2024-03-17T10:58:20;97194.25;;;14.38;52.95
48216;BME280;34005;48.844;10.098;2024-03-17T11:00:49;97192.00;;;14.35;53.20
48216;BME280;34005;48.844;10.098;2024-03-17T11:03:18;97192.25;;;14.40;55.70
48216;BME280;34005;48.844;10.098;2024-03-17T11:05:46;97191.66;;;14.45;51.62
48216;BME280;34005;48.844;10.098;2024-03-17T11:08:16;97193.31;;;14.46;51.47
48216;BME280;34005;48.844;10.098;2024-03-17T11:10:49;97189.66;;;14.47;51.87
48216;BME280;34005;48.844;10.098;2024-03-17T11:13:26;97198.41;;;14.54;52.43
48216;BME280;34005;48.844;10.098;2024-03-17T11:15:54;97193.22;;;14.61;51.50
48216;BME280;34005;48.844;10.098;2024-03-17T11:18:37;97187.22;;;14.67;52.89
48216;BME280;34005;48.844;10.098;2024-03-17T11:21:05;97182.38;;;14.71;52.29
48216;BME280;34005;48.844;10.098;2024-03-17T11:23:37;97188.63;;;14.70;50.51
48216;BME280;34005;48.844;10.098;2024-03-17T11:26:04;97190.44;;;14.69;49.68
48216;BME280;34005;48.844;10.098;2024-03-17T11:28:48;97193.94;;;14.76;53.55
48216;BME280;34005;48.844;10.098;2024-03-17T11:31:43;97185.47;;;14.81;52.35
48216;BME280;34005;48.844;10.098;2024-03-17T11:34:29;97175.19;;;14.86;52.60
48216;BME280;34005;48.844;10.098;2024-03-17T11:36:55;97178.59;;;14.87;50.20
48216;BME280;34005;48.844;10.098;2024-03-17T11:39:45;97182.47;;;14.91;49.90
48216;BME280;34005;48.844;10.098;2024-03-17T11:42:13;97182.72;;;14.96;53.46
48216;BME280;34005;48.844;10.098;2024-03-17T11:44:43;97173.63;;;14.98;55.80
48216;BME280;34005;48.844;10.098;2024-03-17T11:47:10;97170.22;;;15.04;54.86
48216;BME280;34005;48.844;10.098;2024-03-17T11:49:38;97168.63;;;15.10;51.33
48216;BME280;34005;48.844;10.098;2024-03-17T11:54:40;97156.09;;;15.12;50.20
48216;BME280;34005;48.844;10.098;2024-03-17T11:57:09;97155.09;;;15.13;51.58
48216;BME280;34005;48.844;10.098;2024-03-17T11:59:35;97153.69;;;15.17;51.46
48216;BME280;34005;48.844;10.098;2024-03-17T12:02:09;97154.28;;;15.19;50.71
48216;BME280;34005;48.844;10.098;2024-03-17T12:04:39;97145.63;;;15.25;50.58
48216;BME280;34005;48.844;10.098;2024-03-17T12:07:11;97143.59;;;15.28;48.71
48216;BME280;34005;48.844;10.098;2024-03-17T12:09:38;97142.63;;;15.29;52.09
48216;BME280;34005;48.844;10.098;2024-03-17T12:12:08;97137.56;;;15.34;51.75
48216;BME280;34005;48.844;10.098;2024-03-17T12:14:35;97134.34;;;15.38;52.13
48216;BME280;34005;48.844;10.098;2024-03-17T12:17:03;97136.78;;;15.40;51.57
48216;BME280;34005;48.844;10.098;2024-03-17T12:19:30;97129.88;;;15.39;52.06
48216;BME280;34005;48.844;10.098;2024-03-17T12:21:58;97122.22;;;15.37;49.08
48216;BME280;34005;48.844;10.098;2024-03-17T12:24:26;97123.03;;;15.38;52.04
48216;BME280;34005;48.844;10.098;2024-03-17T12:26:54;97121.63;;;15.42;49.58
48216;BME280;34005;48.844;10.098;2024-03-17T12:29:26;97123.03;;;15.44;52.57
48216;BME280;34005;48.844;10.098;2024-03-17T12:31:56;97118.56;;;15.45;50.11
48216;BME280;34005;48.844;10.098;2024-03-17T12:34:24;97112.50;;;15.44;49.41
48216;BME280;34005;48.844;10.098;2024-03-17T12:36:53;97114.53;;;15.49;50.98
48216;BME280;34005;48.844;10.098;2024-03-17T12:39:21;97116.19;;;15.57;49.75
48216;BME280;34005;48.844;10.098;2024-03-17T12:42:02;97113.75;;;15.55;48.36
48216;BME280;34005;48.844;10.098;2024-03-17T12:44:28;97101.22;;;15.57;49.38
48216;BME280;34005;48.844;10.098;2024-03-17T12:46:56;97105.66;;;15.63;51.84
48216;BME280;34005;48.844;10.098;2024-03-17T12:49:22;97107.69;;;15.68;49.96
48216;BME280;34005;48.844;10.098;2024-03-17T12:51:50;97100.81;;;15.67;48.60
48216;BME280;34005;48.844;10.098;2024-03-17T12:54:20;97105.66;;;15.63;48.24
48216;BME280;34005;48.844;10.098;2024-03-17T12:56:48;97098.59;;;15.57;48.14
48216;BME280;34005;48.844;10.098;2024-03-17T12:59:37;97098.16;;;15.54;48.26
48216;BME280;34005;48.844;10.098;2024-03-17T13:02:21;97094.53;;;15.55;49.61
48216;BME280;34005;48.844;10.098;2024-03-17T13:05:07;97095.53;;;15.54;48.25
48216;BME280;34005;48.844;10.098;2024-03-17T13:07:35;97093.50;;;15.49;48.44